sensor_id;sensor_type;location;lat;lon;timestamp;temperature;humidity
41310;DHT22;27057;51.438;-0.010;2022-12-08T00:01:23;1.60;99.90
41310;DHT22;27057;51.438;-0.010;2022-12-08T00:03:51;1.50;99.90
41310;DHT22;27057;51.438;-0.010;2022-12-08T00:06:26;1.40;99.90
41310;DHT22;27057;51.438;-0.010;2022-12-08T00:11:53;1.50;99.90
41310;DHT22;27057;51.438;-0.010;2022-12-08T00:14:38;1.60;99.90
41310;DHT22;27057;51.438;-0.010;2022-12-08T00:17:08;1.40;99.90
41310;DHT22;27057;51.438;-0.010;2022-12-08T00:19:36;1.50;99.90
41310;DHT22;27057;51.438;-0.010;2022-12-08T00:22:07;1.20;99.90
41310;DHT22;27057;51.438;-0.010;2022-12-08T00:24:36;1.20;99.90
41310;DHT22;27057;51.438;-0.010;2022-12-08T00:27:08;1.30;99.90
41310;DHT22;27057;51.438;-0.010;2022-12-08T00:29:36;1.20;99.90
41310;DHT22;27057;51.438;-0.010;2022-12-08T00:32:04;1.50;99.90
41310;DHT22;27057;51.438;-0.010;2022-12-08T00:34:32;1.00;99.90
41310;DHT22;27057;51.438;-0.010;2022-12-08T00:36:59;1.40;99.90
41310;DHT22;27057;51.438;-0.010;2022-12-08T00:39:26;1.20;99.90
41310;DHT22;27057;51.438;-0.010;2022-12-08T00:41:54;1.20;99.90
41310;DHT22;27057;51.438;-0.010;2022-12-08T00:44:43;1.40;99.90
41310;DHT22;27057;51.438;-0.010;2022-12-08T00:47:12;1.30;99.90
41310;DHT22;27057;51.438;-0.010;2022-12-08T00:49:40;1.20;99.90
41310;DHT22;27057;51.438;-0.010;2022-12-08T00:52:07;1.30;99.90
41310;DHT22;27057;51.438;-0.010;2022-12-08T00:54:35;1.30;99.90
41310;DHT22;27057;51.438;-0.010;2022-12-08T00:57:02;1.00;99.90
41310;DHT22;27057;51.438;-0.010;2022-12-08T00:59:30;1.30;99.90
41310;DHT22;27057;51.438;-0.010;2022-12-08T01:01:57;0.80;99.90
41310;DHT22;27057;51.438;-0.010;2022-12-08T01:04:24;1.10;99.90
41310;DHT22;27057;51.438;-0.010;2022-12-08T01:06:52;1.10;99.90
41310;DHT22;27057;51.438;-0.010;2022-12-08T01:09:19;1.10;99.90
41310;DHT22;27057;51.438;-0.010;2022-12-08T01:11:47;1.10;99.90
41310;DHT22;27057;51.438;-0.010;2022-12-08T01:14:14;1.10;99.90
41310;DHT22;27057;51.438;-0.010;2022-12-08T01:16:41;0.90;99.90
41310;DHT22;27057;51.438;-0.010;2022-12-08T01:19:11;0.90;99.90
41310;DHT22;27057;51.438;-0.010;2022-12-08T01:21:39;0.90;99.90
41310;DHT22;27057;51.438;-0.010;2022-12-08T01:24:13;1.10;99.90
41310;DHT22;27057;51.438;-0.010;2022-12-08T01:26:40;1.00;99.90
41310;DHT22;27057;51.438;-0.010;2022-12-08T01:29:09;0.80;99.90
41310;DHT22;27057;51.438;-0.010;2022-12-08T01:31:38;1.30;99.90
41310;DHT22;27057;51.438;-0.010;2022-12-08T01:34:06;0.60;99.90
41310;DHT22;27057;51.438;-0.010;2022-12-08T01:36:34;0.80;99.90
41310;DHT22;27057;51.438;-0.010;2022-12-08T01:39:05;0.80;99.90
41310;DHT22;27057;51.438;-0.010;2022-12-08T01:41:34;0.60;99.90
41310;DHT22;27057;51.438;-0.010;2022-12-08T01:46:44;1.00;99.90
41310;DHT22;27057;51.438;-0.010;2022-12-08T01:49:18;0.80;99.90
41310;DHT22;27057;51.438;-0.010;2022-12-08T01:52:10;1.00;99.90
41310;DHT22;27057;51.438;-0.010;2022-12-08T01:54:51;0.60;99.90
41310;DHT22;27057;51.438;-0.010;2022-12-08T01:57:23;0.80;99.90
41310;DHT22;27057;51.438;-0.010;2022-12-08T02:00:12;0.70;99.90
41310;DHT22;27057;51.438;-0.010;2022-12-08T02:02:58;0.80;99.90
41310;DHT22;27057;51.438;-0.010;2022-12-08T02:05:30;0.80;99.90
41310;DHT22;27057;51.438;-0.010;2022-12-08T02:08:00;0.80;99.90
41310;DHT22;27057;51.438;-0.010;2022-12-08T02:10:33;0.70;99.90
41310;DHT22;27057;51.438;-0.010;2022-12-08T02:13:02;0.90;99.90
41310;DHT22;27057;51.438;-0.010;2022-12-08T02:24:38;0.70;99.90
41310;DHT22;27057;51.438;-0.010;2022-12-08T02:38:52;0.40;99.90
41310;DHT22;27057;51.438;-0.010;2022-12-08T02:41:38;0.50;99.90
41310;DHT22;27057;51.438;-0.010;2022-12-08T02:44:23;0.60;99.90
41310;DHT22;27057;51.438;-0.010;2022-12-08T02:47:10;0.60;99.90
41310;DHT22;27057;51.438;-0.010;2022-12-08T02:49:39;0.70;99.90
41310;DHT22;27057;51.438;-0.010;2022-12-08T02:54:43;0.30;99.90
41310;DHT22;27057;51.438;-0.010;2022-12-08T03:00:13;0.20;99.90
41310;DHT22;27057;51.438;-0.010;2022-12-08T03:06:07;0.50;99.90
41310;DHT22;27057;51.438;-0.010;2022-12-08T03:08:48;0.30;99.90
41310;DHT22;27057;51.438;-0.010;2022-12-08T03:11:38;0.20;99.90
41310;DHT22;27057;51.438;-0.010;2022-12-08T03:14:09;0.40;99.90
41310;DHT22;27057;51.438;-0.010;2022-12-08T03:16:43;0.00;99.90
41310;DHT22;27057;51.438;-0.010;2022-12-08T03:19:18;0.60;99.90
41310;DHT22;27057;51.438;-0.010;2022-12-08T03:21:49;0.10;99.90
41310;DHT22;27057;51.438;-0.010;2022-12-08T03:24:19;0.10;99.90
41310;DHT22;27057;51.438;-0.010;2022-12-08T03:26:53;0.90;99.90
41310;DHT22;27057;51.438;-0.010;2022-12-08T03:29:23;0.20;99.90
41310;DHT22;27057;51.438;-0.010;2022-12-08T03:31:57;-0.10;99.90
41310;DHT22;27057;51.438;-0.010;2022-12-08T03:34:27;0.30;99.90
41310;DHT22;27057;51.438;-0.010;2022-12-08T03:36:55;0.30;99.90
41310;DHT22;27057;51.438;-0.010;2022-12-08T03:39:22;0.10;99.90
41310;DHT22;27057;51.438;-0.010;2022-12-08T03:41:49;1.00;99.90
41310;DHT22;27057;51.438;-0.010;2022-12-08T03:44:17;0.10;99.90
41310;DHT22;27057;51.438;-0.010;2022-12-08T03:46:44;0.20;99.90
41310;DHT22;27057;51.438;-0.010;2022-12-08T03:49:11;0.20;99.90
41310;DHT22;27057;51.438;-0.010;2022-12-08T03:51:39;0.10;99.90
41310;DHT22;27057;51.438;-0.010;2022-12-08T03:54:06;0.10;99.90
41310;DHT22;27057;51.438;-0.010;2022-12-08T03:56:36;-0.10;99.90
41310;DHT22;27057;51.438;-0.010;2022-12-08T03:59:05;0.20;99.90
41310;DHT22;27057;51.438;-0.010;2022-12-08T04:01:33;0.10;99.90
41310;DHT22;27057;51.438;-0.010;2022-12-08T04:04:00;0.00;99.90
41310;DHT22;27057;51.438;-0.010;2022-12-08T04:06:27;0.10;99.90
41310;DHT22;27057;51.438;-0.010;2022-12-08T04:08:55;0.10;99.90
41310;DHT22;27057;51.438;-0.010;2022-12-08T04:11:22;0.10;99.90
41310;DHT22;27057;51.438;-0.010;2022-12-08T04:16:20;0.10;99.90
41310;DHT22;27057;51.438;-0.010;2022-12-08T04:18:48;0.10;99.90
41310;DHT22;27057;51.438;-0.010;2022-12-08T04:21:15;0.10;99.90
41310;DHT22;27057;51.438;-0.010;2022-12-08T04:23:43;0.00;99.90
41310;DHT22;27057;51.438;-0.010;2022-12-08T04:26:12;0.30;99.90
41310;DHT22;27057;51.438;-0.010;2022-12-08T04:28:39;0.20;99.90
41310;DHT22;27057;51.438;-0.010;2022-12-08T04:31:07;0.00;99.90
41310;DHT22;27057;51.438;-0.010;2022-12-08T04:33:34;-0.10;99.90
41310;DHT22;27057;51.438;-0.010;2022-12-08T04:36:03;-0.20;99.90
41310;DHT22;27057;51.438;-0.010;2022-12-08T04:38:31;0.00;99.90
41310;DHT22;27057;51.438;-0.010;2022-12-08T04:40:59;-0.20;99.90
41310;DHT22;27057;51.438;-0.010;2022-12-08T04:43:26;0.10;99.90
41310;DHT22;27057;51.438;-0.010;2022-12-08T04:45:54;0.00;99.90
41310;DHT22;27057;51.438;-0.010;2022-12-08T04:48:21;-0.30;99.90
41310;DHT22;27057;51.438;-0.010;2022-12-08T04:50:49;-0.10;99.90
41310;DHT22;27057;51.438;-0.010;2022-12-08T04:53:17;-0.30;99.90
41310;DHT22;27057;51.438;-0.010;2022-12-08T04:55:46;0.00;99.90
41310;DHT22;27057;51.438;-0.010;2022-12-08T04:58:17;-0.30;99.90
41310;DHT22;27057;51.438;-0.010;2022-12-08T05:00:45;-0.20;99.90
41310;DHT22;27057;51.438;-0.010;2022-12-08T05:03:13;-0.10;99.90
41310;DHT22;27057;51.438;-0.010;2022-12-08T05:05:41;0.10;99.90
41310;DHT22;27057;51.438;-0.010;2022-12-08T05:08:09;-0.10;99.90
41310;DHT22;27057;51.438;-0.010;2022-12-08T05:10:37;-0.30;99.90
41310;DHT22;27057;51.438;-0.010;2022-12-08T05:13:04;-0.10;99.90
41310;DHT22;27057;51.438;-0.010;2022-12-08T05:15:32;-0.10;99.90
41310;DHT22;27057;51.438;-0.010;2022-12-08T05:17:59;-0.10;99.90
41310;DHT22;27057;51.438;-0.010;2022-12-08T05:20:26;-0.30;99.90
41310;DHT22;27057;51.438;-0.010;2022-12-08T05:22:54;-0.30;99.90
41310;DHT22;27057;51.438;-0.010;2022-12-08T05:25:21;-0.40;99.90
41310;DHT22;27057;51.438;-0.010;2022-12-08T05:27:48;0.00;99.90
41310;DHT22;27057;51.438;-0.010;2022-12-08T05:30:15;-0.40;99.90
41310;DHT22;27057;51.438;-0.010;2022-12-08T05:32:43;-0.10;99.90
41310;DHT22;27057;51.438;-0.010;2022-12-08T05:35:10;-0.30;99.90
41310;DHT22;27057;51.438;-0.010;2022-12-08T05:37:37;-0.40;99.90
41310;DHT22;27057;51.438;-0.010;2022-12-08T05:40:05;-0.10;99.90
41310;DHT22;27057;51.438;-0.010;2022-12-08T05:45:01;-0.40;99.90
41310;DHT22;27057;51.438;-0.010;2022-12-08T05:47:28;-0.40;99.90
41310;DHT22;27057;51.438;-0.010;2022-12-08T05:50:02;-0.20;99.90
41310;DHT22;27057;51.438;-0.010;2022-12-08T05:52:31;-0.20;99.90
41310;DHT22;27057;51.438;-0.010;2022-12-08T05:54:58;-0.40;99.90
41310;DHT22;27057;51.438;-0.010;2022-12-08T05:57:26;-0.30;99.90
41310;DHT22;27057;51.438;-0.010;2022-12-08T06:04:50;-0.20;99.90
41310;DHT22;27057;51.438;-0.010;2022-12-08T06:07:18;-0.30;99.90
41310;DHT22;27057;51.438;-0.010;2022-12-08T06:09:45;-0.20;99.90
41310;DHT22;27057;51.438;-0.010;2022-12-08T06:12:13;0.00;99.90
41310;DHT22;27057;51.438;-0.010;2022-12-08T06:14:42;0.00;99.90
41310;DHT22;27057;51.438;-0.010;2022-12-08T06:17:09;-0.40;99.90
41310;DHT22;27057;51.438;-0.010;2022-12-08T06:19:37;-0.30;99.90
41310;DHT22;27057;51.438;-0.010;2022-12-08T06:22:04;-0.50;99.90
41310;DHT22;27057;51.438;-0.010;2022-12-08T06:24:31;-0.50;99.90
41310;DHT22;27057;51.438;-0.010;2022-12-08T06:29:26;0.00;99.90
41310;DHT22;27057;51.438;-0.010;2022-12-08T06:31:53;0.60;99.90
41310;DHT22;27057;51.438;-0.010;2022-12-08T06:34:21;-0.10;99.90
41310;DHT22;27057;51.438;-0.010;2022-12-08T06:36:48;-0.20;99.90
41310;DHT22;27057;51.438;-0.010;2022-12-08T06:39:15;-0.20;99.90
41310;DHT22;27057;51.438;-0.010;2022-12-08T06:41:42;-0.60;99.90
41310;DHT22;27057;51.438;-0.010;2022-12-08T06:44:28;-0.30;99.90
41310;DHT22;27057;51.438;-0.010;2022-12-08T06:46:55;-0.30;99.90
41310;DHT22;27057;51.438;-0.010;2022-12-08T06:49:23;-0.70;99.90
41310;DHT22;27057;51.438;-0.010;2022-12-08T06:54:18;-0.50;99.90
41310;DHT22;27057;51.438;-0.010;2022-12-08T06:56:45;-0.40;99.90
41310;DHT22;27057;51.438;-0.010;2022-12-08T06:59:12;-0.50;99.90
41310;DHT22;27057;51.438;-0.010;2022-12-08T07:01:39;-0.20;99.90
41310;DHT22;27057;51.438;-0.010;2022-12-08T07:04:07;-0.40;99.90
41310;DHT22;27057;51.438;-0.010;2022-12-08T07:06:34;-0.20;99.90
41310;DHT22;27057;51.438;-0.010;2022-12-08T07:09:02;-0.30;99.90
41310;DHT22;27057;51.438;-0.010;2022-12-08T07:11:30;-0.50;99.90
41310;DHT22;27057;51.438;-0.010;2022-12-08T07:13:57;-0.60;99.90
41310;DHT22;27057;51.438;-0.010;2022-12-08T07:16:25;-0.20;99.90
41310;DHT22;27057;51.438;-0.010;2022-12-08T07:18:52;-0.40;99.90
41310;DHT22;27057;51.438;-0.010;2022-12-08T07:21:19;-0.60;99.90
41310;DHT22;27057;51.438;-0.010;2022-12-08T07:23:48;-0.50;99.90
41310;DHT22;27057;51.438;-0.010;2022-12-08T07:26:23;-0.30;99.90
41310;DHT22;27057;51.438;-0.010;2022-12-08T07:28:51;-0.30;99.90
41310;DHT22;27057;51.438;-0.010;2022-12-08T07:31:23;-0.50;99.90
41310;DHT22;27057;51.438;-0.010;2022-12-08T07:33:51;-0.50;99.90
41310;DHT22;27057;51.438;-0.010;2022-12-08T07:36:19;-0.50;99.90
41310;DHT22;27057;51.438;-0.010;2022-12-08T07:38:47;-0.30;99.90
41310;DHT22;27057;51.438;-0.010;2022-12-08T07:41:16;-0.40;99.90
41310;DHT22;27057;51.438;-0.010;2022-12-08T07:43:44;-0.40;99.90
41310;DHT22;27057;51.438;-0.010;2022-12-08T07:46:16;-0.50;99.90
41310;DHT22;27057;51.438;-0.010;2022-12-08T07:48:44;-0.30;99.90
41310;DHT22;27057;51.438;-0.010;2022-12-08T07:51:13;-0.30;99.90
41310;DHT22;27057;51.438;-0.010;2022-12-08T07:53:43;-0.50;99.90
41310;DHT22;27057;51.438;-0.010;2022-12-08T07:56:19;-0.30;99.90
41310;DHT22;27057;51.438;-0.010;2022-12-08T07:58:47;-0.40;99.90
41310;DHT22;27057;51.438;-0.010;2022-12-08T08:01:26;-0.20;99.90
41310;DHT22;27057;51.438;-0.010;2022-12-08T08:03:55;-0.30;99.90
41310;DHT22;27057;51.438;-0.010;2022-12-08T08:06:23;-0.20;99.90
41310;DHT22;27057;51.438;-0.010;2022-12-08T08:08:51;-0.40;99.90
41310;DHT22;27057;51.438;-0.010;2022-12-08T08:11:18;-0.20;99.90
41310;DHT22;27057;51.438;-0.010;2022-12-08T08:13:48;-0.30;99.90
41310;DHT22;27057;51.438;-0.010;2022-12-08T08:16:17;-0.20;99.90
41310;DHT22;27057;51.438;-0.010;2022-12-08T08:18:46;-0.30;99.90
41310;DHT22;27057;51.438;-0.010;2022-12-08T08:21:15;-0.10;99.90
41310;DHT22;27057;51.438;-0.010;2022-12-08T08:24:03;-0.20;99.90
41310;DHT22;27057;51.438;-0.010;2022-12-08T08:26:31;-0.40;99.90
41310;DHT22;27057;51.438;-0.010;2022-12-08T08:28:58;-0.10;99.90
41310;DHT22;27057;51.438;-0.010;2022-12-08T08:31:26;-0.20;99.90
41310;DHT22;27057;51.438;-0.010;2022-12-08T08:33:54;0.30;99.90
41310;DHT22;27057;51.438;-0.010;2022-12-08T08:36:22;-0.30;99.90
41310;DHT22;27057;51.438;-0.010;2022-12-08T08:38:49;-0.40;99.90
41310;DHT22;27057;51.438;-0.010;2022-12-08T08:41:16;-0.50;99.90
41310;DHT22;27057;51.438;-0.010;2022-12-08T08:43:44;-0.40;99.90
41310;DHT22;27057;51.438;-0.010;2022-12-08T08:46:11;-0.20;99.90
41310;DHT22;27057;51.438;-0.010;2022-12-08T08:48:38;-0.30;99.90
41310;DHT22;27057;51.438;-0.010;2022-12-08T08:51:09;-0.40;99.90
41310;DHT22;27057;51.438;-0.010;2022-12-08T08:53:36;-0.30;99.90
41310;DHT22;27057;51.438;-0.010;2022-12-08T08:56:09;-0.10;99.90
41310;DHT22;27057;51.438;-0.010;2022-12-08T08:58:37;-0.20;99.90
41310;DHT22;27057;51.438;-0.010;2022-12-08T09:01:04;0.00;99.90
41310;DHT22;27057;51.438;-0.010;2022-12-08T09:03:32;-0.20;99.90
41310;DHT22;27057;51.438;-0.010;2022-12-08T09:05:59;-0.30;99.90
41310;DHT22;27057;51.438;-0.010;2022-12-08T09:08:27;-0.30;99.90
41310;DHT22;27057;51.438;-0.010;2022-12-08T09:10:54;0.00;99.90
41310;DHT22;27057;51.438;-0.010;2022-12-08T09:13:21;-0.10;99.90
41310;DHT22;27057;51.438;-0.010;2022-12-08T09:15:49;0.10;99.90
41310;DHT22;27057;51.438;-0.010;2022-12-08T09:18:16;0.10;99.90
41310;DHT22;27057;51.438;-0.010;2022-12-08T09:20:44;0.40;99.90
41310;DHT22;27057;51.438;-0.010;2022-12-08T09:23:11;0.00;99.90
41310;DHT22;27057;51.438;-0.010;2022-12-08T09:30:34;0.10;99.90
41310;DHT22;27057;51.438;-0.010;2022-12-08T09:33:01;0.40;99.90
41310;DHT22;27057;51.438;-0.010;2022-12-08T09:37:57;0.40;99.90
41310;DHT22;27057;51.438;-0.010;2022-12-08T09:40:25;0.20;99.90
41310;DHT22;27057;51.438;-0.010;2022-12-08T09:42:58;0.30;99.90
41310;DHT22;27057;51.438;-0.010;2022-12-08T09:45:32;0.40;99.90
41310;DHT22;27057;51.438;-0.010;2022-12-08T09:48:09;0.40;99.90
41310;DHT22;27057;51.438;-0.010;2022-12-08T09:50:39;0.40;99.90
41310;DHT22;27057;51.438;-0.010;2022-12-08T09:58:46;0.60;99.90
41310;DHT22;27057;51.438;-0.010;2022-12-08T10:01:19;0.60;99.90
41310;DHT22;27057;51.438;-0.010;2022-12-08T10:03:47;1.20;99.90
41310;DHT22;27057;51.438;-0.010;2022-12-08T10:08:55;0.80;99.90
41310;DHT22;27057;51.438;-0.010;2022-12-08T10:11:31;0.80;99.90
41310;DHT22;27057;51.438;-0.010;2022-12-08T10:14:14;0.90;99.90
41310;DHT22;27057;51.438;-0.010;2022-12-08T10:16:48;1.30;99.90
41310;DHT22;27057;51.438;-0.010;2022-12-08T10:19:22;1.00;99.90
41310;DHT22;27057;51.438;-0.010;2022-12-08T10:21:50;1.30;99.90
41310;DHT22;27057;51.438;-0.010;2022-12-08T10:24:30;1.30;99.90
41310;DHT22;27057;51.438;-0.010;2022-12-08T10:27:00;1.00;99.90
41310;DHT22;27057;51.438;-0.010;2022-12-08T10:29:27;1.20;99.90
41310;DHT22;27057;51.438;-0.010;2022-12-08T10:31:58;1.20;99.90
41310;DHT22;27057;51.438;-0.010;2022-12-08T10:34:26;1.80;99.90
41310;DHT22;27057;51.438;-0.010;2022-12-08T10:36:55;1.40;99.90
41310;DHT22;27057;51.438;-0.010;2022-12-08T10:39:41;1.40;99.90
41310;DHT22;27057;51.438;-0.010;2022-12-08T10:42:20;1.70;99.90
41310;DHT22;27057;51.438;-0.010;2022-12-08T10:44:52;1.80;99.90
41310;DHT22;27057;51.438;-0.010;2022-12-08T10:47:23;1.80;99.90
41310;DHT22;27057;51.438;-0.010;2022-12-08T10:50:17;1.90;99.90
41310;DHT22;27057;51.438;-0.010;2022-12-08T10:52:56;1.80;99.90
41310;DHT22;27057;51.438;-0.010;2022-12-08T10:55:25;2.10;99.90
41310;DHT22;27057;51.438;-0.010;2022-12-08T10:57:52;2.30;99.90
41310;DHT22;27057;51.438;-0.010;2022-12-08T11:00:25;2.30;99.90
41310;DHT22;27057;51.438;-0.010;2022-12-08T11:02:54;1.80;99.90
41310;DHT22;27057;51.438;-0.010;2022-12-08T11:05:26;2.40;99.90
41310;DHT22;27057;51.438;-0.010;2022-12-08T11:07:54;2.60;99.90
41310;DHT22;27057;51.438;-0.010;2022-12-08T11:10:33;3.90;99.90
41310;DHT22;27057;51.438;-0.010;2022-12-08T11:13:04;3.50;99.90
41310;DHT22;27057;51.438;-0.010;2022-12-08T11:15:38;4.10;99.90
41310;DHT22;27057;51.438;-0.010;2022-12-08T11:18:11;3.70;99.90
41310;DHT22;27057;51.438;-0.010;2022-12-08T11:20:46;3.90;99.90
41310;DHT22;27057;51.438;-0.010;2022-12-08T11:23:19;4.00;99.90
41310;DHT22;27057;51.438;-0.010;2022-12-08T11:25:48;4.20;99.90
41310;DHT22;27057;51.438;-0.010;2022-12-08T11:28:23;4.50;99.90
41310;DHT22;27057;51.438;-0.010;2022-12-08T11:30:58;4.40;99.90
41310;DHT22;27057;51.438;-0.010;2022-12-08T11:33:27;4.70;99.90
41310;DHT22;27057;51.438;-0.010;2022-12-08T11:38:24;5.30;99.90
41310;DHT22;27057;51.438;-0.010;2022-12-08T11:41:08;5.20;99.90
41310;DHT22;27057;51.438;-0.010;2022-12-08T11:46:45;5.50;99.90
41310;DHT22;27057;51.438;-0.010;2022-12-08T11:49:14;5.60;99.90
41310;DHT22;27057;51.438;-0.010;2022-12-08T11:51:49;5.80;99.90
41310;DHT22;27057;51.438;-0.010;2022-12-08T11:54:31;6.10;99.90
41310;DHT22;27057;51.438;-0.010;2022-12-08T11:57:02;5.90;99.90
41310;DHT22;27057;51.438;-0.010;2022-12-08T11:59:38;6.60;99.90
41310;DHT22;27057;51.438;-0.010;2022-12-08T12:02:22;6.50;99.90
41310;DHT22;27057;51.438;-0.010;2022-12-08T12:07:51;7.00;99.90
41310;DHT22;27057;51.438;-0.010;2022-12-08T12:10:35;6.90;99.90
41310;DHT22;27057;51.438;-0.010;2022-12-08T12:18:46;7.10;99.90
41310;DHT22;27057;51.438;-0.010;2022-12-08T12:21:27;7.20;99.90
41310;DHT22;27057;51.438;-0.010;2022-12-08T12:29:25;6.80;99.90
41310;DHT22;27057;51.438;-0.010;2022-12-08T12:31:57;7.90;99.90
41310;DHT22;27057;51.438;-0.010;2022-12-08T12:34:29;7.00;99.90
41310;DHT22;27057;51.438;-0.010;2022-12-08T12:37:04;6.80;99.90
41310;DHT22;27057;51.438;-0.010;2022-12-08T13:03:41;9.00;99.90
41310;DHT22;27057;51.438;-0.010;2022-12-08T13:06:10;9.20;99.90
41310;DHT22;27057;51.438;-0.010;2022-12-08T13:08:50;8.90;99.90
41310;DHT22;27057;51.438;-0.010;2022-12-08T13:11:18;9.40;99.90
41310;DHT22;27057;51.438;-0.010;2022-12-08T13:16:25;9.40;99.90
41310;DHT22;27057;51.438;-0.010;2022-12-08T13:18:58;9.90;99.90
41310;DHT22;27057;51.438;-0.010;2022-12-08T13:21:36;10.20;99.90
41310;DHT22;27057;51.438;-0.010;2022-12-08T13:29:34;10.70;99.90
41310;DHT22;27057;51.438;-0.010;2022-12-08T13:32:10;11.00;99.90
41310;DHT22;27057;51.438;-0.010;2022-12-08T13:34:55;11.20;99.90
41310;DHT22;27057;51.438;-0.010;2022-12-08T13:37:45;11.30;99.90
41310;DHT22;27057;51.438;-0.010;2022-12-08T13:40:26;11.30;99.90
41310;DHT22;27057;51.438;-0.010;2022-12-08T13:43:04;11.50;99.90
41310;DHT22;27057;51.438;-0.010;2022-12-08T13:45:34;11.50;99.90
41310;DHT22;27057;51.438;-0.010;2022-12-08T13:48:31;12.10;99.90
41310;DHT22;27057;51.438;-0.010;2022-12-08T13:51:27;11.50;99.90
41310;DHT22;27057;51.438;-0.010;2022-12-08T13:57:28;11.30;99.90
41310;DHT22;27057;51.438;-0.010;2022-12-08T14:00:04;11.90;99.90
41310;DHT22;27057;51.438;-0.010;2022-12-08T14:02:41;11.40;99.90
41310;DHT22;27057;51.438;-0.010;2022-12-08T14:05:16;11.90;99.90
41310;DHT22;27057;51.438;-0.010;2022-12-08T14:08:12;12.00;99.90
41310;DHT22;27057;51.438;-0.010;2022-12-08T14:11:05;12.30;99.90
41310;DHT22;27057;51.438;-0.010;2022-12-08T14:13:33;12.70;99.90
41310;DHT22;27057;51.438;-0.010;2022-12-08T14:16:00;12.50;99.90
41310;DHT22;27057;51.438;-0.010;2022-12-08T14:18:30;12.90;99.90
41310;DHT22;27057;51.438;-0.010;2022-12-08T14:21:02;12.80;99.90
41310;DHT22;27057;51.438;-0.010;2022-12-08T14:23:47;12.90;99.90
41310;DHT22;27057;51.438;-0.010;2022-12-08T14:26:14;13.30;99.90
41310;DHT22;27057;51.438;-0.010;2022-12-08T14:28:42;13.10;99.90
41310;DHT22;27057;51.438;-0.010;2022-12-08T14:31:11;13.20;99.90
41310;DHT22;27057;51.438;-0.010;2022-12-08T14:33:41;13.30;99.90
41310;DHT22;27057;51.438;-0.010;2022-12-08T14:36:10;13.40;99.90
41310;DHT22;27057;51.438;-0.010;2022-12-08T14:38:38;13.30;99.90
41310;DHT22;27057;51.438;-0.010;2022-12-08T14:41:08;13.30;99.90
41310;DHT22;27057;51.438;-0.010;2022-12-08T14:43:37;13.40;99.90
41310;DHT22;27057;51.438;-0.010;2022-12-08T14:46:21;13.30;99.90
41310;DHT22;27057;51.438;-0.010;2022-12-08T14:48:49;13.30;99.90
41310;DHT22;27057;51.438;-0.010;2022-12-08T14:53:56;13.40;99.90
41310;DHT22;27057;51.438;-0.010;2022-12-08T14:56:30;13.50;99.90
41310;DHT22;27057;51.438;-0.010;2022-12-08T14:59:14;13.20;99.90
41310;DHT22;27057;51.438;-0.010;2022-12-08T15:01:44;13.10;99.90
41310;DHT22;27057;51.438;-0.010;2022-12-08T15:06:50;13.30;99.90
41310;DHT22;27057;51.438;-0.010;2022-12-08T15:09:38;13.10;99.90
41310;DHT22;27057;51.438;-0.010;2022-12-08T15:17:40;12.90;99.90
41310;DHT22;27057;51.438;-0.010;2022-12-08T15:20:30;12.40;99.90
41310;DHT22;27057;51.438;-0.010;2022-12-08T15:23:02;12.20;99.90
41310;DHT22;27057;51.438;-0.010;2022-12-08T15:25:30;11.20;99.90
41310;DHT22;27057;51.438;-0.010;2022-12-08T15:27:57;10.20;99.90
41310;DHT22;27057;51.438;-0.010;2022-12-08T15:30:24;10.80;99.90
41310;DHT22;27057;51.438;-0.010;2022-12-08T15:32:55;7.40;99.90
41310;DHT22;27057;51.438;-0.010;2022-12-08T15:35:22;9.30;99.90
41310;DHT22;27057;51.438;-0.010;2022-12-08T15:37:50;8.50;99.90
41310;DHT22;27057;51.438;-0.010;2022-12-08T15:40:20;8.10;99.90
41310;DHT22;27057;51.438;-0.010;2022-12-08T15:42:47;7.60;99.90
41310;DHT22;27057;51.438;-0.010;2022-12-08T15:45:16;7.60;99.90
41310;DHT22;27057;51.438;-0.010;2022-12-08T15:47:44;7.40;99.90
41310;DHT22;27057;51.438;-0.010;2022-12-08T15:50:16;7.00;99.90
41310;DHT22;27057;51.438;-0.010;2022-12-08T15:52:43;7.00;99.90
41310;DHT22;27057;51.438;-0.010;2022-12-08T15:55:16;5.90;99.90
41310;DHT22;27057;51.438;-0.010;2022-12-08T15:57:45;6.30;99.90
41310;DHT22;27057;51.438;-0.010;2022-12-08T16:00:35;6.20;99.90
41310;DHT22;27057;51.438;-0.010;2022-12-08T16:03:24;6.30;99.90
41310;DHT22;27057;51.438;-0.010;2022-12-08T16:06:20;5.70;99.90
41310;DHT22;27057;51.438;-0.010;2022-12-08T16:11:47;5.20;99.90
41310;DHT22;27057;51.438;-0.010;2022-12-08T16:14:37;5.20;99.90
41310;DHT22;27057;51.438;-0.010;2022-12-08T16:17:25;5.00;99.90
41310;DHT22;27057;51.438;-0.010;2022-12-08T16:19:53;4.50;99.90
41310;DHT22;27057;51.438;-0.010;2022-12-08T16:22:23;4.90;99.90
41310;DHT22;27057;51.438;-0.010;2022-12-08T16:25:11;4.90;99.90
41310;DHT22;27057;51.438;-0.010;2022-12-08T16:27:49;5.30;99.90
41310;DHT22;27057;51.438;-0.010;2022-12-08T16:30:29;4.70;99.90
41310;DHT22;27057;51.438;-0.010;2022-12-08T16:32:56;4.40;99.90
41310;DHT22;27057;51.438;-0.010;2022-12-08T16:35:24;4.30;99.90
41310;DHT22;27057;51.438;-0.010;2022-12-08T16:37:51;4.30;99.90
41310;DHT22;27057;51.438;-0.010;2022-12-08T16:40:18;4.10;99.90
41310;DHT22;27057;51.438;-0.010;2022-12-08T16:42:46;4.10;99.90
41310;DHT22;27057;51.438;-0.010;2022-12-08T16:45:27;4.00;99.90
41310;DHT22;27057;51.438;-0.010;2022-12-08T16:47:57;4.10;99.90
41310;DHT22;27057;51.438;-0.010;2022-12-08T16:50:28;4.00;99.90
41310;DHT22;27057;51.438;-0.010;2022-12-08T16:55:24;3.80;99.90
41310;DHT22;27057;51.438;-0.010;2022-12-08T16:57:52;3.80;99.90
41310;DHT22;27057;51.438;-0.010;2022-12-08T17:00:25;3.90;99.90
41310;DHT22;27057;51.438;-0.010;2022-12-08T17:02:54;3.70;99.90
41310;DHT22;27057;51.438;-0.010;2022-12-08T17:05:23;3.60;99.90
41310;DHT22;27057;51.438;-0.010;2022-12-08T17:07:52;3.40;99.90
41310;DHT22;27057;51.438;-0.010;2022-12-08T17:10:23;3.30;99.90
41310;DHT22;27057;51.438;-0.010;2022-12-08T17:12:52;3.60;99.90
41310;DHT22;27057;51.438;-0.010;2022-12-08T17:15:23;3.60;99.90
41310;DHT22;27057;51.438;-0.010;2022-12-08T17:17:50;3.60;99.90
41310;DHT22;27057;51.438;-0.010;2022-12-08T17:20:20;3.60;99.90
41310;DHT22;27057;51.438;-0.010;2022-12-08T17:22:48;3.60;99.90
41310;DHT22;27057;51.438;-0.010;2022-12-08T17:25:16;3.70;99.90
41310;DHT22;27057;51.438;-0.010;2022-12-08T17:27:43;3.50;99.90
41310;DHT22;27057;51.438;-0.010;2022-12-08T17:30:11;3.50;99.90
41310;DHT22;27057;51.438;-0.010;2022-12-08T17:32:41;3.50;99.90
41310;DHT22;27057;51.438;-0.010;2022-12-08T17:35:10;3.30;99.90
41310;DHT22;27057;51.438;-0.010;2022-12-08T17:37:37;3.50;99.90
41310;DHT22;27057;51.438;-0.010;2022-12-08T17:40:05;3.50;99.90
41310;DHT22;27057;51.438;-0.010;2022-12-08T17:42:33;3.40;99.90
41310;DHT22;27057;51.438;-0.010;2022-12-08T17:45:00;3.20;99.90
41310;DHT22;27057;51.438;-0.010;2022-12-08T17:49:55;3.30;99.90
41310;DHT22;27057;51.438;-0.010;2022-12-08T17:52:23;3.30;99.90
41310;DHT22;27057;51.438;-0.010;2022-12-08T17:54:50;3.30;99.90
41310;DHT22;27057;51.438;-0.010;2022-12-08T17:57:17;3.50;99.90
41310;DHT22;27057;51.438;-0.010;2022-12-08T17:59:45;3.40;99.90
41310;DHT22;27057;51.438;-0.010;2022-12-08T18:02:12;3.00;99.90
41310;DHT22;27057;51.438;-0.010;2022-12-08T18:04:39;3.30;99.90
41310;DHT22;27057;51.438;-0.010;2022-12-08T18:07:06;3.10;99.90
41310;DHT22;27057;51.438;-0.010;2022-12-08T18:09:34;3.40;99.90